Stanley, Wisconsin
Current Conditions -  °F | °C
As of 10:28 PM on Monday 22 Dec 2014 (Local Time) from KEAU Reporting Station
Light Snow Light Snow  
Wind Chill: 24°   Ceiling: 1100
Heat Index: 33°   Visibility: 4mi
Dew Point: 31°   Wind: 13mph
Humidity: 92%   Direction: 60°ENE
Pressure: 29.64"   Gusts: NA
Location:  44.96°N, 90.94°W
Report Text: KEAU 230428Z AUTO 06011KT 4SM -SN BR OVC011 01/M01 A2964 RMK AO2 SNB0358 CIG 007V012 P0001 T00061006
Loading
Personal Weather Stations






























Interactive Weather Map New forecast layout! Learn more

10-Day Weather Forecast

Advertisements
Track Severe Weather on mobile